createdAt,value
2017-09-21T03:32:32.869Z,61.20
2017-09-21T03:35:00.654Z,61.20
2017-09-21T03:37:28.670Z,61.60
2017-09-21T03:39:56.286Z,60.90
2017-09-21T03:42:23.903Z,62.40
2017-09-21T03:44:52.293Z,63.90
2017-09-21T03:47:20.781Z,64.10
2017-09-21T03:49:48.928Z,64.00
2017-09-21T03:52:16.526Z,63.00
2017-09-21T03:54:44.138Z,62.90
2017-09-21T03:57:12.274Z,62.70
2017-09-21T03:59:39.863Z,62.70
2017-09-21T04:02:07.518Z,61.80
2017-09-21T04:04:35.142Z,61.10
2017-09-21T04:07:02.752Z,60.90
2017-09-21T04:09:30.734Z,60.60
2017-09-21T04:11:58.362Z,60.80
2017-09-21T04:14:25.967Z,60.90
2017-09-21T04:16:54.370Z,61.90
2017-09-21T04:19:21.982Z,62.70
2017-09-21T04:21:49.941Z,61.30
2017-09-21T04:24:17.542Z,61.60
2017-09-21T04:26:45.916Z,60.10
2017-09-21T04:29:14.345Z,59.80
2017-09-21T04:31:41.962Z,59.80
2017-09-21T04:34:10.773Z,59.70
2017-09-21T04:36:38.387Z,59.60
2017-09-21T04:39:06.010Z,60.10
2017-09-21T04:41:34.017Z,59.50
2017-09-21T04:44:01.654Z,59.50
2017-09-21T04:46:29.255Z,59.80
2017-09-21T04:48:58.023Z,60.60
2017-09-21T04:51:25.629Z,60.60
2017-09-21T04:53:53.279Z,59.50
2017-09-21T04:56:20.898Z,59.90
2017-09-21T04:58:48.515Z,60.00
2017-09-21T05:01:16.477Z,59.80
2017-09-21T05:03:44.111Z,60.00
2017-09-21T05:06:12.473Z,61.10
2017-09-21T05:08:40.446Z,61.10
2017-09-21T05:11:08.058Z,60.70
2017-09-21T05:13:35.680Z,61.10
2017-09-21T05:16:03.312Z,61.20
2017-09-21T05:18:30.933Z,61.40
2017-09-21T05:20:58.957Z,61.40
2017-09-21T05:23:26.554Z,61.50
2017-09-21T05:25:54.924Z,61.50
2017-09-21T05:28:23.364Z,61.10
2017-09-21T05:30:51.053Z,61.10
2017-09-21T05:33:19.884Z,62.50
2017-09-21T05:35:47.488Z,62.50
2017-09-21T05:38:15.105Z,63.30
2017-09-21T05:40:43.120Z,63.00
2017-09-21T05:43:10.716Z,62.70
2017-09-21T05:45:38.322Z,64.30
2017-09-21T05:48:06.313Z,64.50
2017-09-21T05:50:33.910Z,65.00
2017-09-21T05:53:01.525Z,64.10
2017-09-21T05:55:29.154Z,63.80
2017-09-21T05:57:56.798Z,63.90
2017-09-21T06:00:24.752Z,62.90
2017-09-21T06:02:53.127Z,61.20
2017-09-21T06:05:21.506Z,59.90
2017-09-21T06:07:49.957Z,59.70
2017-09-21T06:10:17.558Z,59.70
2017-09-21T06:12:45.593Z,59.60
2017-09-21T06:15:13.193Z,59.40
2017-09-21T06:17:40.781Z,59.20
2017-09-21T06:20:08.786Z,59.40
2017-09-21T06:22:36.559Z,59.20
2017-09-21T06:25:04.934Z,59.40
2017-09-21T06:27:32.890Z,59.30
2017-09-21T06:30:00.505Z,59.30
2017-09-21T06:32:28.106Z,59.30
2017-09-21T06:34:56.217Z,59.40
2017-09-21T06:37:24.589Z,59.30
2017-09-21T06:39:52.956Z,59.30
2017-09-21T06:42:21.738Z,59.30
2017-09-21T06:44:49.356Z,59.30
2017-09-21T06:47:16.959Z,59.50
2017-09-21T06:49:44.595Z,59.80
2017-09-21T06:52:12.188Z,61.30
2017-09-21T06:54:40.964Z,61.10
2017-09-21T06:57:08.565Z,61.10
2017-09-21T06:59:36.159Z,60.90
2017-09-21T07:02:03.782Z,60.60
2017-09-21T07:04:31.365Z,60.50
2017-09-21T07:06:59.376Z,61.10
2017-09-21T07:09:26.981Z,61.10
2017-09-21T07:11:54.581Z,60.80
2017-09-21T07:14:22.670Z,60.90
2017-09-21T07:16:50.287Z,60.90
2017-09-21T07:19:17.896Z,61.00
2017-09-21T07:21:45.876Z,61.00
2017-09-21T07:24:14.242Z,60.90
2017-09-21T07:26:41.838Z,60.90
2017-09-21T07:29:09.460Z,60.90
2017-09-21T07:31:37.063Z,61.50
2017-09-21T07:34:05.089Z,61.20
2017-09-21T07:36:32.710Z,62.40
2017-09-21T07:39:00.354Z,62.20
2017-09-21T07:41:27.990Z,62.20
2017-09-21T07:43:56.560Z,63.00
2017-09-21T07:46:24.624Z,63.00
2017-09-21T07:48:52.225Z,63.30
2017-09-21T07:51:19.834Z,63.20
2017-09-21T07:53:47.457Z,63.60
2017-09-21T07:56:15.114Z,63.10
2017-09-21T07:58:43.159Z,63.30
2017-09-21T08:01:11.559Z,62.00
2017-09-21T08:03:39.177Z,61.80
2017-09-21T08:06:06.798Z,62.40
2017-09-21T08:08:34.442Z,61.20
2017-09-21T08:11:02.484Z,61.40
2017-09-21T08:13:30.091Z,62.40
2017-09-21T08:15:57.693Z,62.70
2017-09-21T08:18:25.662Z,61.50
2017-09-21T08:20:53.274Z,61.00
2017-09-21T08:23:20.889Z,61.20
2017-09-21T08:25:48.981Z,60.00
2017-09-21T08:28:17.351Z,60.60
2017-09-21T08:30:45.716Z,61.40
2017-09-21T08:33:13.783Z,61.40
2017-09-21T08:35:41.397Z,60.80
2017-09-21T08:38:09.004Z,60.00
2017-09-21T08:40:36.630Z,60.30
2017-09-21T08:43:04.234Z,60.40
2017-09-21T08:45:32.233Z,60.80
2017-09-21T08:47:59.841Z,61.20
2017-09-21T08:50:27.454Z,61.20
2017-09-21T08:52:56.217Z,62.30
2017-09-21T08:55:23.820Z,62.30
2017-09-21T08:57:51.480Z,62.20
2017-09-21T09:00:19.454Z,62.70
2017-09-21T09:02:47.060Z,63.10
2017-09-21T09:05:14.674Z,62.40
2017-09-21T09:07:42.688Z,61.90
2017-09-21T09:10:10.308Z,61.30
2017-09-21T09:12:37.930Z,61.40
2017-09-21T09:15:06.693Z,62.00
2017-09-21T09:17:34.294Z,61.90
2017-09-21T09:20:01.897Z,60.70
2017-09-21T09:22:29.879Z,60.60
2017-09-21T09:24:57.486Z,59.20
2017-09-21T09:27:25.096Z,58.30
2017-09-21T09:29:52.733Z,57.10
2017-09-21T09:32:20.356Z,56.00
2017-09-21T09:34:49.222Z,55.40
2017-09-21T09:37:16.823Z,55.40
2017-09-21T09:39:44.536Z,54.70
2017-09-21T09:42:12.541Z,54.40
2017-09-21T09:44:40.902Z,54.20
2017-09-21T09:47:08.506Z,54.10
2017-09-21T09:49:36.524Z,52.80
2017-09-21T09:52:04.200Z,52.30
2017-09-21T09:54:32.576Z,52.20
2017-09-21T09:57:00.206Z,51.90
2017-09-21T09:59:27.822Z,51.60
2017-09-21T10:01:55.786Z,51.40
2017-09-21T10:04:24.157Z,50.60
2017-09-21T10:06:52.512Z,49.10
2017-09-21T10:09:20.135Z,49.00
2017-09-21T10:11:47.752Z,48.60
2017-09-21T10:14:16.487Z,46.80
2017-09-21T10:16:45.021Z,46.80
2017-09-21T10:19:13.428Z,46.80
2017-09-21T10:21:41.450Z,46.80
2017-09-21T10:24:09.063Z,45.40
2017-09-21T10:26:36.670Z,44.90
2017-09-21T10:29:04.291Z,43.60
2017-09-21T10:31:31.906Z,42.70
2017-09-21T10:33:59.962Z,43.30
2017-09-21T10:36:27.573Z,43.90
2017-09-21T10:38:55.202Z,43.70
2017-09-21T10:41:23.161Z,44.40
2017-09-21T10:43:50.777Z,45.10
2017-09-21T10:46:18.386Z,46.10
2017-09-21T10:48:46.441Z,47.00
2017-09-21T10:51:14.109Z,45.80
2017-09-21T10:53:41.729Z,45.90
2017-09-21T10:56:09.738Z,45.20
2017-09-21T10:58:37.352Z,45.80
2017-09-21T11:01:04.950Z,46.50
2017-09-21T11:03:32.579Z,46.30
2017-09-21T11:06:00.186Z,47.10
2017-09-21T11:08:27.793Z,47.50
2017-09-21T11:10:55.812Z,47.90
2017-09-21T11:13:23.434Z,48.60
2017-09-21T11:15:51.872Z,49.60
2017-09-21T11:18:20.743Z,49.70
2017-09-21T11:20:48.346Z,49.50
2017-09-21T11:23:15.959Z,49.90
2017-09-21T11:25:43.577Z,50.50
2017-09-21T11:28:11.565Z,50.80
2017-09-21T11:30:39.557Z,50.50
2017-09-21T11:33:07.182Z,50.60
2017-09-21T11:35:34.853Z,51.30
2017-09-21T11:38:02.856Z,50.40
2017-09-21T11:40:31.234Z,50.10
2017-09-21T11:42:58.958Z,50.20
2017-09-21T11:45:26.593Z,49.80
2017-09-21T11:47:54.426Z,49.70
2017-09-21T11:50:22.505Z,49.60
2017-09-21T11:52:50.911Z,47.80
2017-09-21T11:55:19.291Z,46.60
2017-09-21T11:57:46.925Z,46.60
2017-09-21T12:00:14.528Z,45.50
2017-09-21T12:02:42.548Z,45.20
2017-09-21T12:05:10.154Z,42.70
2017-09-21T12:07:37.756Z,38.00
2017-09-21T12:10:06.468Z,36.40
2017-09-21T12:12:34.868Z,38.20
2017-09-21T12:15:02.476Z,37.50
2017-09-21T12:17:30.504Z,39.00
2017-09-21T12:19:58.104Z,40.00
2017-09-21T12:22:25.710Z,40.50
2017-09-21T12:24:54.108Z,39.40
2017-09-21T12:27:21.732Z,39.30
2017-09-21T12:29:51.093Z,38.40
2017-09-21T12:32:18.740Z,39.00
2017-09-21T12:34:46.340Z,39.30
2017-09-21T12:37:13.979Z,39.30
2017-09-21T12:39:41.634Z,38.80
2017-09-21T12:42:09.636Z,39.40
2017-09-21T12:44:37.229Z,40.30
2017-09-21T12:47:05.638Z,40.80
2017-09-21T12:49:33.308Z,40.80
2017-09-21T12:52:02.980Z,40.60
2017-09-21T12:54:31.842Z,40.50
2017-09-21T12:56:59.452Z,40.50
2017-09-21T12:59:27.056Z,41.90
2017-09-21T13:01:55.037Z,42.60
2017-09-21T13:04:22.712Z,44.10
2017-09-21T13:06:51.079Z,42.70
2017-09-21T13:09:18.704Z,42.70
2017-09-21T13:11:46.305Z,43.50
2017-09-21T13:14:14.405Z,44.60
2017-09-21T13:16:42.005Z,42.80
2017-09-21T13:19:09.598Z,43.90
2017-09-21T13:21:37.988Z,42.40
2017-09-21T13:24:06.395Z,43.90
2017-09-21T13:26:34.453Z,43.90
2017-09-21T13:29:02.073Z,44.30
2017-09-21T13:31:29.680Z,43.20
2017-09-21T13:33:57.708Z,43.30
2017-09-21T13:36:25.317Z,44.00
2017-09-21T13:38:52.922Z,43.60
2017-09-21T13:41:20.541Z,43.20
2017-09-21T13:43:48.156Z,44.40
2017-09-21T13:46:16.928Z,44.50
2017-09-21T13:48:44.537Z,44.40
2017-09-21T13:51:12.136Z,43.60
2017-09-21T13:53:40.143Z,44.10
2017-09-21T13:56:08.529Z,44.50
2017-09-21T13:58:36.909Z,45.60
2017-09-21T14:01:05.392Z,45.60
2017-09-21T14:03:33.761Z,44.80
2017-09-21T14:06:02.530Z,45.60
2017-09-21T14:08:30.130Z,45.60
2017-09-21T14:10:57.732Z,45.00
2017-09-21T14:13:25.345Z,44.80
2017-09-21T14:15:53.702Z,45.00
2017-09-21T14:18:21.738Z,45.00
2017-09-21T14:20:49.339Z,45.60
2017-09-21T14:23:17.706Z,45.80
2017-09-21T14:25:45.329Z,45.20
2017-09-21T14:28:12.938Z,45.00
2017-09-21T14:30:41.704Z,45.70
2017-09-21T14:33:09.328Z,45.70
2017-09-21T14:35:36.936Z,43.80
2017-09-21T14:38:05.020Z,45.60
2017-09-21T14:40:33.477Z,46.40
2017-09-21T14:43:01.088Z,46.40
2017-09-21T14:45:28.715Z,46.70
2017-09-21T14:47:56.430Z,46.00
2017-09-21T14:50:24.557Z,46.40
2017-09-21T14:52:53.345Z,48.20
2017-09-21T14:55:21.718Z,49.80
2017-09-21T14:57:49.722Z,49.80
2017-09-21T15:00:17.345Z,48.80
2017-09-21T15:02:45.785Z,47.60
2017-09-21T15:05:13.497Z,47.60
2017-09-21T15:07:41.263Z,49.30
2017-09-21T15:10:09.331Z,46.60
2017-09-21T15:12:37.717Z,46.60
2017-09-21T15:15:06.238Z,47.20
2017-09-21T15:17:33.890Z,47.20
2017-09-21T15:20:01.517Z,45.80
2017-09-21T15:22:30.443Z,47.80
2017-09-21T15:24:58.387Z,47.70
2017-09-21T15:27:26.001Z,48.70
2017-09-21T15:29:54.461Z,48.40
2017-09-21T15:32:22.085Z,48.30
2017-09-21T15:34:50.937Z,51.90
2017-09-21T15:37:18.554Z,51.90
2017-09-21T15:39:46.190Z,50.30
2017-09-21T15:42:14.303Z,51.60
2017-09-21T15:44:42.005Z,53.00
2017-09-21T15:47:10.019Z,52.70
2017-09-21T15:49:38.000Z,53.10
2017-09-21T15:52:05.638Z,51.90
2017-09-21T15:54:34.022Z,54.40
2017-09-21T15:57:01.653Z,54.30
2017-09-21T15:59:29.586Z,54.00
2017-09-21T16:01:57.586Z,53.50
2017-09-21T16:04:25.192Z,53.80
2017-09-21T16:06:52.830Z,52.90
2017-09-21T16:09:22.423Z,51.20
2017-09-21T16:11:50.027Z,51.20
2017-09-21T16:14:17.717Z,50.80
2017-09-21T16:16:45.358Z,52.00
2017-09-21T16:19:12.968Z,53.40
2017-09-21T16:21:41.743Z,51.40
2017-09-21T16:24:09.336Z,51.30
2017-09-21T16:26:37.738Z,50.00
2017-09-21T16:29:05.741Z,49.90
2017-09-21T16:31:33.349Z,50.80
2017-09-21T16:34:00.959Z,50.40
2017-09-21T16:36:28.948Z,52.30
2017-09-21T16:38:56.571Z,53.80
2017-09-21T16:41:24.164Z,54.20
2017-09-21T16:43:52.149Z,54.70
2017-09-21T16:46:20.534Z,53.80
2017-09-21T16:48:49.029Z,55.60
2017-09-21T16:51:17.413Z,55.70
2017-09-21T16:53:45.040Z,55.70
2017-09-21T16:56:13.435Z,56.60
2017-09-21T16:58:41.574Z,56.10
2017-09-21T17:01:09.190Z,56.70
2017-09-21T17:03:37.220Z,56.70
2017-09-21T17:06:04.818Z,57.70
2017-09-21T17:08:32.460Z,58.00
2017-09-21T17:11:00.866Z,57.80
2017-09-21T17:13:28.474Z,57.70
2017-09-21T17:15:56.477Z,57.70
2017-09-21T17:18:24.873Z,56.90
2017-09-21T17:20:52.547Z,56.90
2017-09-21T17:23:20.530Z,56.70
2017-09-21T17:25:48.167Z,56.30
2017-09-21T17:28:16.049Z,56.10
2017-09-21T17:30:44.329Z,56.50
2017-09-21T17:33:11.969Z,56.40
2017-09-21T17:35:39.959Z,56.00
2017-09-21T17:38:07.602Z,55.50
2017-09-21T17:40:35.262Z,55.10
2017-09-21T17:43:02.960Z,54.90
2017-09-21T17:45:30.603Z,55.20
2017-09-21T17:47:58.611Z,55.50
2017-09-21T17:50:26.248Z,56.00
2017-09-21T17:52:53.865Z,56.10
2017-09-21T17:55:21.640Z,56.30
2017-09-21T17:57:49.304Z,56.40
2017-09-21T18:00:17.349Z,56.40
2017-09-21T18:02:45.764Z,56.30
2017-09-21T18:05:13.400Z,56.20
2017-09-21T18:07:41.060Z,56.40
2017-09-21T18:10:09.436Z,56.90
2017-09-21T18:12:39.240Z,57.00
2017-09-21T18:15:07.692Z,57.00
2017-09-21T18:17:35.331Z,57.00
2017-09-21T18:20:02.975Z,57.10
2017-09-21T18:22:30.910Z,57.10
2017-09-21T18:24:59.684Z,57.30
2017-09-21T18:27:27.327Z,57.20
2017-09-21T18:29:57.171Z,58.20
2017-09-21T18:32:25.603Z,57.60
2017-09-21T18:34:53.242Z,57.60
2017-09-21T18:37:21.287Z,57.30
2017-09-21T18:39:49.980Z,57.20
2017-09-21T18:42:18.402Z,57.00
2017-09-21T18:44:46.524Z,56.90
2017-09-21T18:47:14.927Z,56.40
2017-09-21T18:49:43.504Z,56.40
2017-09-21T18:52:11.170Z,56.80
2017-09-21T18:54:38.793Z,57.20
2017-09-21T18:57:06.804Z,57.70
2017-09-21T18:59:34.443Z,57.60
2017-09-21T19:02:02.862Z,57.80
2017-09-21T19:04:30.908Z,57.70
2017-09-21T19:06:58.557Z,58.10
2017-09-21T19:09:26.988Z,58.50
2017-09-21T19:11:54.672Z,58.50
2017-09-21T19:14:22.312Z,58.60
2017-09-21T19:16:50.320Z,58.60
2017-09-21T19:19:17.995Z,58.70
2017-09-21T19:21:46.381Z,58.60
2017-09-21T19:24:14.046Z,58.60
2017-09-21T19:26:42.428Z,58.40
2017-09-21T19:29:10.456Z,58.30
2017-09-21T19:31:38.106Z,58.40
2017-09-21T19:34:05.777Z,58.40
2017-09-21T19:36:33.839Z,58.30
2017-09-21T19:39:01.490Z,58.40
2017-09-21T19:41:29.164Z,58.30
2017-09-21T19:43:57.275Z,58.40
2017-09-21T19:46:25.728Z,58.80
2017-09-21T19:48:54.276Z,58.70
2017-09-21T19:51:22.279Z,58.60
2017-09-21T19:53:50.778Z,58.60
2017-09-21T19:56:19.153Z,59.20
2017-09-21T19:58:47.343Z,58.90
2017-09-21T20:01:15.741Z,58.70
2017-09-21T20:03:43.438Z,58.60
2017-09-21T20:06:11.156Z,58.90
2017-09-21T20:08:38.808Z,58.80
2017-09-21T20:11:07.687Z,59.10
2017-09-21T20:13:36.103Z,59.30
2017-09-21T20:16:03.728Z,59.30
2017-09-21T20:18:32.128Z,59.10
2017-09-21T20:20:59.741Z,59.00
2017-09-21T20:23:27.749Z,59.00
2017-09-21T20:25:56.121Z,59.10
2017-09-21T20:28:24.493Z,59.20
2017-09-21T20:30:53.383Z,59.00
2017-09-21T20:33:21.777Z,58.80
2017-09-21T20:35:50.163Z,58.60
2017-09-21T20:38:17.821Z,58.40
2017-09-21T20:40:45.430Z,58.30
2017-09-21T20:43:13.968Z,58.50
2017-09-21T20:45:41.589Z,58.40
2017-09-21T20:48:09.261Z,58.70
2017-09-21T20:50:36.896Z,58.70
2017-09-21T20:53:04.526Z,58.60
2017-09-21T20:55:32.541Z,58.90
2017-09-21T20:58:00.132Z,58.90
2017-09-21T21:00:28.526Z,59.10
2017-09-21T21:02:56.159Z,59.10
2017-09-21T21:05:24.541Z,59.10
2017-09-21T21:07:53.319Z,59.30
2017-09-21T21:10:20.923Z,59.20
2017-09-21T21:12:48.533Z,59.00
2017-09-21T21:15:16.184Z,59.20
2017-09-21T21:17:43.797Z,59.20
2017-09-21T21:20:11.785Z,59.20
2017-09-21T21:22:39.389Z,59.20
2017-09-21T21:25:06.992Z,58.70
2017-09-21T21:27:34.974Z,58.40
2017-09-21T21:30:02.608Z,58.40
2017-09-21T21:32:30.222Z,58.70
2017-09-21T21:34:58.207Z,58.60
2017-09-21T21:37:25.806Z,58.70
2017-09-21T21:39:53.449Z,58.90
2017-09-21T21:42:22.225Z,59.40
2017-09-21T21:44:49.801Z,59.40
2017-09-21T21:47:18.180Z,59.70
2017-09-21T21:49:46.657Z,59.10
2017-09-21T21:52:15.040Z,59.10
2017-09-21T21:54:43.805Z,59.30
2017-09-21T21:57:11.417Z,59.20
2017-09-21T21:59:39.029Z,59.10
2017-09-21T22:02:07.094Z,59.30
2017-09-21T22:04:34.714Z,59.30
2017-09-21T22:07:02.364Z,59.10
2017-09-21T22:09:29.988Z,58.90
2017-09-21T22:11:57.752Z,59.40
2017-09-21T22:14:25.815Z,59.40
2017-09-21T22:16:53.426Z,59.40
2017-09-21T22:19:21.057Z,59.30
2017-09-21T22:21:49.112Z,59.10
2017-09-21T22:24:16.725Z,58.90
2017-09-21T22:26:44.343Z,59.10
2017-09-21T22:29:13.117Z,59.00
